createdAt,value
2022-11-10T00:01:18.936Z,1.20
2022-11-10T00:03:48.628Z,1.07
2022-11-10T00:06:15.668Z,1.10
2022-11-10T00:08:42.638Z,1.43
2022-11-10T00:11:10.103Z,1.00
2022-11-10T00:14:01.152Z,1.10
2022-11-10T00:16:46.827Z,1.00
2022-11-10T00:19:13.833Z,0.90
2022-11-10T00:21:40.834Z,0.80
2022-11-10T00:24:08.167Z,1.03
2022-11-10T00:26:35.125Z,1.30
2022-11-10T00:29:02.105Z,0.70
2022-11-10T00:31:29.152Z,1.00
2022-11-10T00:33:56.623Z,1.10
2022-11-10T00:36:24.560Z,1.00
2022-11-10T00:38:52.442Z,0.90
2022-11-10T00:41:19.951Z,0.90
2022-11-10T00:43:47.500Z,1.10
2022-11-10T00:46:15.580Z,1.00
2022-11-10T00:48:42.575Z,1.27
2022-11-10T00:51:41.123Z,1.20
2022-11-10T00:54:08.340Z,1.17
2022-11-10T00:56:35.406Z,1.10
2022-11-10T00:59:02.400Z,1.30
2022-11-10T01:01:29.495Z,1.03
2022-11-10T01:03:56.503Z,1.00
2022-11-10T01:06:23.473Z,1.27
2022-11-10T01:08:50.624Z,1.10
2022-11-10T01:11:22.945Z,0.70
2022-11-10T01:13:55.649Z,1.00
2022-11-10T01:16:31.248Z,1.20
2022-11-10T01:19:02.433Z,1.13
2022-11-10T01:21:30.892Z,1.13
2022-11-10T01:23:58.468Z,1.03
2022-11-10T01:26:26.165Z,1.13
2022-11-10T01:28:53.133Z,0.97
2022-11-10T01:31:22.418Z,1.00
2022-11-10T01:33:49.803Z,1.20
2022-11-10T01:36:16.893Z,1.27
2022-11-10T01:38:44.464Z,1.10
2022-11-10T01:41:14.430Z,1.23
2022-11-10T01:43:42.154Z,1.23
2022-11-10T01:46:14.053Z,1.23
2022-11-10T01:48:59.919Z,0.93
2022-11-10T01:52:02.866Z,1.40
2022-11-10T01:54:36.202Z,1.03
2022-11-10T01:57:09.960Z,1.20
2022-11-10T01:59:47.456Z,1.20
2022-11-10T02:02:30.854Z,1.00
2022-11-10T02:05:00.328Z,1.03
2022-11-10T02:07:27.662Z,1.17
2022-11-10T02:09:54.689Z,1.30
2022-11-10T02:12:36.845Z,1.20
2022-11-10T02:15:13.052Z,1.77
2022-11-10T02:17:40.693Z,1.30
2022-11-10T02:20:12.652Z,1.30
2022-11-10T02:22:40.405Z,1.20
2022-11-10T02:25:08.271Z,1.27
2022-11-10T02:27:35.322Z,1.20
2022-11-10T02:30:02.446Z,1.20
2022-11-10T02:32:29.418Z,1.10
2022-11-10T02:34:56.392Z,1.13
2022-11-10T02:37:23.413Z,1.50
2022-11-10T02:39:50.391Z,1.20
2022-11-10T02:42:20.538Z,1.07
2022-11-10T02:44:47.785Z,1.40
2022-11-10T02:47:15.258Z,1.20
2022-11-10T02:49:42.232Z,1.07
2022-11-10T02:52:09.251Z,1.20
2022-11-10T02:54:36.237Z,1.13
2022-11-10T02:57:03.507Z,1.13
2022-11-10T02:59:30.516Z,1.37
2022-11-10T03:01:57.497Z,1.17
2022-11-10T03:04:24.598Z,0.70
2022-11-10T03:06:51.628Z,1.33
2022-11-10T03:09:18.652Z,1.03
2022-11-10T03:11:45.628Z,1.30
2022-11-10T03:14:12.645Z,1.20
2022-11-10T03:16:39.625Z,1.13
2022-11-10T03:19:06.696Z,1.23
2022-11-10T03:21:33.667Z,1.13
2022-11-10T03:24:00.629Z,1.93
2022-11-10T03:26:28.172Z,1.27
2022-11-10T03:28:55.146Z,0.97
2022-11-10T03:31:22.187Z,1.43
2022-11-10T03:33:49.183Z,1.00
2022-11-10T03:36:16.312Z,1.40
2022-11-10T03:38:43.305Z,1.27
2022-11-10T03:41:19.672Z,1.17
2022-11-10T03:43:49.230Z,1.67
2022-11-10T03:46:17.471Z,0.90
2022-11-10T03:48:48.887Z,1.30
2022-11-10T03:51:20.553Z,1.43
2022-11-10T03:53:47.649Z,1.30
2022-11-10T03:56:14.670Z,1.60
2022-11-10T03:58:41.929Z,1.37
2022-11-10T04:01:09.047Z,1.37
2022-11-10T04:03:36.066Z,1.20
2022-11-10T04:06:21.924Z,1.50
2022-11-10T04:09:00.731Z,1.90
2022-11-10T04:11:48.320Z,1.50
2022-11-10T04:14:35.251Z,1.93
2022-11-10T04:17:03.045Z,1.40
2022-11-10T04:19:30.726Z,1.43
2022-11-10T04:21:58.153Z,1.40
2022-11-10T04:24:25.138Z,1.70
2022-11-10T04:26:54.620Z,1.40
2022-11-10T04:29:25.536Z,1.37
2022-11-10T04:31:52.514Z,1.70
2022-11-10T04:34:19.749Z,1.60
2022-11-10T04:36:46.911Z,1.60
2022-11-10T04:39:17.456Z,1.70
2022-11-10T04:41:44.454Z,1.67
2022-11-10T04:44:11.421Z,2.00
2022-11-10T04:46:40.323Z,1.43
2022-11-10T04:49:08.349Z,1.63
2022-11-10T04:51:39.917Z,2.00
2022-11-10T04:54:12.457Z,1.80
2022-11-10T04:56:41.216Z,1.90
2022-11-10T04:59:08.388Z,2.03
2022-11-10T05:01:35.367Z,2.03
2022-11-10T05:04:02.422Z,1.80
2022-11-10T05:06:29.466Z,2.07
2022-11-10T05:08:56.474Z,1.83
2022-11-10T05:11:23.798Z,1.70
2022-11-10T05:13:50.927Z,2.10
2022-11-10T05:16:17.978Z,1.90
2022-11-10T05:18:45.042Z,2.00
2022-11-10T05:21:12.053Z,2.00
2022-11-10T05:23:39.263Z,2.30
2022-11-10T05:26:10.830Z,1.90
2022-11-10T05:28:39.751Z,2.20
2022-11-10T05:31:07.169Z,2.30
2022-11-10T05:33:36.118Z,2.53
2022-11-10T05:36:03.756Z,2.40
2022-11-10T05:38:31.453Z,1.90
2022-11-10T05:40:58.807Z,2.40
2022-11-10T05:43:38.957Z,2.37
2022-11-10T05:46:10.657Z,2.10
2022-11-10T05:48:37.856Z,2.40
2022-11-10T05:51:05.106Z,2.77
2022-11-10T05:53:32.511Z,2.40
2022-11-10T05:56:00.215Z,2.33
2022-11-10T05:58:27.229Z,2.53
2022-11-10T06:00:54.356Z,2.47
2022-11-10T06:03:22.277Z,2.37
2022-11-10T06:05:49.581Z,2.37
2022-11-10T06:08:17.780Z,2.70
2022-11-10T06:10:45.204Z,3.10
2022-11-10T06:13:12.202Z,2.90
2022-11-10T06:15:40.072Z,3.57
2022-11-10T06:18:07.333Z,3.53
2022-11-10T06:20:34.621Z,3.27
2022-11-10T06:23:10.368Z,3.27
2022-11-10T06:25:41.274Z,3.43
2022-11-10T06:28:10.014Z,3.30
2022-11-10T06:30:38.610Z,3.20
2022-11-10T06:33:05.671Z,3.87
2022-11-10T06:35:32.775Z,2.97
2022-11-10T06:38:06.553Z,3.60
2022-11-10T06:40:34.337Z,3.40
2022-11-10T06:43:02.214Z,3.07
2022-11-10T06:45:29.390Z,3.50
2022-11-10T06:48:05.920Z,3.83
2022-11-10T06:50:33.921Z,3.63
2022-11-10T06:53:02.080Z,3.33
2022-11-10T06:55:30.375Z,3.93
2022-11-10T06:57:57.747Z,3.30
2022-11-10T07:00:28.443Z,3.63
2022-11-10T07:03:07.162Z,3.53
2022-11-10T07:05:36.634Z,3.60
2022-11-10T07:08:13.634Z,3.47
2022-11-10T07:10:43.832Z,3.40
2022-11-10T07:13:12.830Z,4.20
2022-11-10T07:15:40.115Z,3.67
2022-11-10T07:18:07.352Z,3.90
2022-11-10T07:20:35.332Z,3.50
2022-11-10T07:23:07.074Z,3.77
2022-11-10T07:25:37.354Z,3.47
2022-11-10T07:28:08.264Z,3.33
2022-11-10T07:30:36.566Z,3.77
2022-11-10T07:33:09.510Z,3.37
2022-11-10T07:35:37.155Z,3.70
2022-11-10T07:38:12.960Z,3.60
2022-11-10T07:40:40.243Z,6.43
2022-11-10T07:43:07.246Z,4.13
2022-11-10T07:45:34.467Z,3.80
2022-11-10T07:48:06.327Z,3.47
2022-11-10T07:50:34.492Z,3.37
2022-11-10T07:53:18.014Z,3.00
2022-11-10T07:55:46.263Z,3.10
2022-11-10T07:58:17.733Z,3.17
2022-11-10T08:00:46.923Z,3.40
2022-11-10T08:03:21.101Z,3.33
2022-11-10T08:05:48.828Z,3.33
2022-11-10T08:08:15.897Z,3.40
2022-11-10T08:10:43.672Z,3.47
2022-11-10T08:13:13.168Z,3.00
2022-11-10T08:15:42.301Z,3.13
2022-11-10T08:18:18.898Z,3.17
2022-11-10T08:20:46.481Z,3.63
2022-11-10T08:23:17.447Z,3.17
2022-11-10T08:25:46.653Z,2.87
2022-11-10T08:28:17.904Z,2.97
2022-11-10T08:30:48.036Z,2.90
2022-11-10T08:33:19.024Z,4.13
2022-11-10T08:35:52.688Z,3.10
2022-11-10T08:38:23.267Z,2.90
2022-11-10T08:40:50.813Z,3.03
2022-11-10T08:43:21.109Z,3.50
2022-11-10T08:45:48.325Z,3.17
2022-11-10T08:48:20.057Z,3.30
2022-11-10T08:50:49.581Z,2.90
2022-11-10T08:53:21.941Z,3.20
2022-11-10T08:55:50.079Z,3.17
2022-11-10T08:58:22.021Z,3.07
2022-11-10T09:00:50.188Z,3.03
2022-11-10T09:03:26.683Z,3.33
2022-11-10T09:05:58.268Z,3.27
2022-11-10T09:08:26.470Z,2.90
2022-11-10T09:10:53.547Z,3.30
2022-11-10T09:13:29.405Z,3.40
2022-11-10T09:16:02.976Z,3.13
2022-11-10T09:18:30.872Z,3.23
2022-11-10T09:20:58.002Z,3.30
2022-11-10T09:23:26.475Z,3.33
2022-11-10T09:25:56.114Z,3.30
2022-11-10T09:28:23.818Z,3.47
2022-11-10T09:30:52.337Z,3.40
2022-11-10T09:33:20.544Z,3.67
2022-11-10T09:35:47.993Z,2.83
2022-11-10T09:38:15.007Z,3.67
2022-11-10T09:41:09.070Z,2.93
2022-11-10T09:44:14.441Z,2.97
2022-11-10T09:46:53.514Z,3.37
2022-11-10T09:49:39.244Z,2.07
2022-11-10T09:52:10.286Z,2.80
2022-11-10T09:54:51.405Z,2.80
2022-11-10T09:57:24.486Z,2.63
2022-11-10T09:59:52.319Z,2.33
2022-11-10T10:02:45.442Z,2.80
2022-11-10T10:05:53.678Z,2.67
2022-11-10T10:08:53.885Z,2.90
2022-11-10T10:12:35.840Z,2.50
2022-11-10T10:16:07.489Z,2.60
2022-11-10T10:19:35.650Z,2.70
2022-11-10T10:22:16.071Z,2.80
2022-11-10T10:24:43.380Z,2.67
2022-11-10T10:27:26.655Z,2.67
2022-11-10T10:29:56.876Z,2.70
2022-11-10T10:32:30.056Z,3.30
2022-11-10T10:34:57.783Z,2.57
2022-11-10T10:37:54.206Z,2.30
2022-11-10T10:40:24.724Z,2.50
2022-11-10T10:42:51.947Z,2.60
2022-11-10T10:45:29.809Z,2.30
2022-11-10T10:47:58.480Z,2.67
2022-11-10T10:50:33.112Z,2.73
2022-11-10T10:53:23.156Z,2.60
2022-11-10T10:56:16.441Z,2.10
2022-11-10T10:59:01.262Z,2.90
2022-11-10T11:01:37.060Z,2.33
2022-11-10T11:04:43.691Z,2.90
2022-11-10T11:07:25.901Z,2.40
2022-11-10T11:09:53.214Z,2.23
2022-11-10T11:12:22.523Z,2.50
2022-11-10T11:14:49.617Z,3.13
2022-11-10T11:17:23.200Z,2.23
2022-11-10T11:19:59.894Z,2.17
2022-11-10T11:22:57.174Z,2.90
2022-11-10T11:25:39.247Z,2.27
2022-11-10T11:29:20.247Z,2.17
2022-11-10T11:32:45.685Z,2.60
2022-11-10T11:36:11.141Z,2.47
2022-11-10T11:39:19.609Z,2.07
2022-11-10T11:42:19.198Z,3.17
2022-11-10T11:45:29.097Z,1.70
2022-11-10T11:48:33.849Z,1.80
2022-11-10T11:51:44.200Z,2.67
2022-11-10T11:54:48.531Z,2.07
2022-11-10T11:57:46.064Z,2.50
2022-11-10T12:00:22.176Z,2.20
2022-11-10T12:03:42.830Z,1.80
2022-11-10T12:06:59.216Z,2.50
2022-11-10T12:10:12.233Z,1.97
2022-11-10T12:13:08.928Z,2.20
2022-11-10T12:16:24.049Z,2.20
2022-11-10T12:19:13.837Z,2.40
2022-11-10T12:21:57.844Z,2.00
2022-11-10T12:25:07.304Z,1.80
2022-11-10T12:27:43.454Z,1.80
2022-11-10T12:30:15.681Z,1.97
2022-11-10T12:32:56.390Z,1.80
2022-11-10T12:35:34.192Z,2.30
2022-11-10T12:38:21.686Z,2.00
2022-11-10T12:41:04.928Z,1.87
2022-11-10T12:43:57.466Z,2.13
2022-11-10T12:46:24.764Z,2.50
2022-11-10T12:49:32.407Z,1.97
2022-11-10T12:52:21.519Z,2.10
2022-11-10T12:54:53.115Z,1.80
2022-11-10T12:57:34.299Z,2.07
2022-11-10T13:00:27.445Z,2.17
2022-11-10T13:02:57.203Z,2.00
2022-11-10T13:05:36.729Z,1.90
2022-11-10T13:08:20.085Z,1.30
2022-11-10T13:11:28.591Z,1.83
2022-11-10T13:14:40.615Z,1.77
2022-11-10T13:17:57.058Z,1.30
2022-11-10T13:20:39.465Z,1.50
2022-11-10T13:23:30.325Z,1.40
2022-11-10T13:26:44.131Z,1.50
2022-11-10T13:29:43.960Z,1.53
2022-11-10T13:32:35.683Z,1.90
2022-11-10T13:35:30.525Z,1.83
2022-11-10T13:38:00.631Z,1.80
2022-11-10T13:40:32.808Z,1.90
2022-11-10T13:42:59.932Z,1.50
2022-11-10T13:45:44.949Z,1.77
2022-11-10T13:48:11.802Z,1.70
2022-11-10T13:51:25.555Z,1.73
2022-11-10T13:54:49.944Z,1.47
2022-11-10T13:57:49.883Z,1.60
2022-11-10T14:00:19.459Z,2.17
2022-11-10T14:02:58.968Z,1.53
2022-11-10T14:05:29.263Z,2.13
2022-11-10T14:08:06.159Z,1.70
2022-11-10T14:10:49.158Z,2.20
2022-11-10T14:14:04.746Z,1.50
2022-11-10T14:16:39.776Z,1.60
2022-11-10T14:19:40.220Z,1.53
2022-11-10T14:22:47.299Z,5.30
2022-11-10T14:25:41.097Z,5.80
2022-11-10T14:28:31.948Z,2.20
2022-11-10T14:31:00.045Z,3.60
2022-11-10T14:33:30.779Z,2.23
2022-11-10T14:36:09.235Z,1.57
2022-11-10T14:38:44.696Z,2.07
2022-11-10T14:41:20.922Z,2.00
2022-11-10T14:44:11.298Z,2.07
2022-11-10T14:46:38.572Z,2.10
2022-11-10T14:49:05.639Z,2.03
2022-11-10T14:51:38.220Z,2.10
2022-11-10T14:54:07.189Z,2.30
2022-11-10T14:56:36.825Z,2.63
2022-11-10T14:59:07.830Z,2.20
2022-11-10T15:01:48.110Z,2.60
2022-11-10T15:04:16.083Z,2.97
2022-11-10T15:06:47.067Z,3.10
2022-11-10T15:09:32.041Z,3.83
2022-11-10T15:12:23.399Z,3.30
2022-11-10T15:15:17.698Z,2.47
2022-11-10T15:17:52.443Z,2.27
2022-11-10T15:20:41.200Z,2.13
2022-11-10T15:23:40.532Z,3.03
2022-11-10T15:26:25.491Z,2.73
2022-11-10T15:28:53.841Z,2.50
2022-11-10T15:31:33.890Z,2.47
2022-11-10T15:34:05.008Z,2.03
2022-11-10T15:36:39.568Z,2.50
2022-11-10T15:39:12.731Z,3.07
2022-11-10T15:41:46.749Z,2.70
2022-11-10T15:44:24.132Z,2.53
2022-11-10T15:46:58.933Z,2.43
2022-11-10T15:49:37.422Z,2.97
2022-11-10T15:52:22.880Z,2.77
2022-11-10T15:54:51.632Z,2.80
2022-11-10T15:57:20.282Z,1.87
2022-11-10T15:59:47.281Z,2.70
2022-11-10T16:02:24.935Z,2.47
2022-11-10T16:05:00.053Z,2.80
2022-11-10T16:07:27.587Z,2.40
2022-11-10T16:09:54.648Z,2.70
2022-11-10T16:12:23.494Z,2.57
2022-11-10T16:14:53.416Z,3.00
2022-11-10T16:17:22.707Z,3.60
2022-11-10T16:19:49.679Z,5.43
2022-11-10T16:22:19.146Z,7.27
2022-11-10T16:24:47.057Z,4.73
2022-11-10T16:27:15.342Z,5.47
2022-11-10T16:29:43.130Z,7.43
2022-11-10T16:32:12.232Z,5.23
2022-11-10T16:34:39.278Z,5.80
2022-11-10T16:37:06.369Z,2.40
2022-11-10T16:39:33.349Z,3.73
2022-11-10T16:42:00.540Z,4.60
2022-11-10T16:44:27.580Z,3.30
2022-11-10T16:46:57.213Z,2.50
2022-11-10T16:49:35.348Z,2.50
2022-11-10T16:52:15.190Z,4.17
2022-11-10T16:54:42.232Z,2.20
2022-11-10T16:57:17.300Z,3.10
2022-11-10T16:59:45.667Z,2.50
2022-11-10T17:02:30.307Z,2.57
2022-11-10T17:04:57.434Z,2.60
2022-11-10T17:07:29.081Z,2.83
2022-11-10T17:10:00.825Z,2.50
2022-11-10T17:12:27.805Z,2.20
2022-11-10T17:14:54.915Z,3.00
2022-11-10T17:17:22.111Z,2.70
2022-11-10T17:19:51.093Z,8.87
2022-11-10T17:22:21.499Z,6.30
2022-11-10T17:24:54.879Z,5.37
2022-11-10T17:27:22.049Z,3.80
2022-11-10T17:29:49.065Z,2.83
2022-11-10T17:32:16.071Z,2.80
2022-11-10T17:34:43.101Z,5.97
2022-11-10T17:37:15.480Z,6.57
2022-11-10T17:39:42.508Z,3.97
2022-11-10T17:42:15.406Z,3.93
2022-11-10T17:44:42.526Z,5.53
2022-11-10T17:47:09.497Z,5.20
2022-11-10T17:49:36.699Z,4.07
2022-11-10T17:52:04.098Z,3.50
2022-11-10T17:54:31.421Z,3.73
2022-11-10T17:56:58.443Z,3.17
2022-11-10T17:59:25.472Z,3.37
2022-11-10T18:01:52.539Z,2.90
2022-11-10T18:04:19.792Z,2.10
2022-11-10T18:06:46.838Z,2.50
2022-11-10T18:09:14.170Z,2.27
2022-11-10T18:11:41.124Z,2.50
2022-11-10T18:14:11.353Z,2.30
2022-11-10T18:16:38.680Z,2.50
2022-11-10T18:19:05.772Z,2.17
2022-11-10T18:21:32.749Z,2.47
2022-11-10T18:23:59.784Z,2.03
2022-11-10T18:26:26.805Z,2.30
2022-11-10T18:28:56.240Z,2.60
2022-11-10T18:31:23.284Z,2.87
2022-11-10T18:33:53.844Z,1.90
2022-11-10T18:36:20.991Z,1.93
2022-11-10T18:38:48.035Z,2.33
2022-11-10T18:41:33.611Z,2.47
2022-11-10T18:44:00.579Z,2.40
2022-11-10T18:46:27.639Z,1.73
2022-11-10T18:48:54.617Z,2.07
2022-11-10T18:51:21.611Z,2.00
2022-11-10T18:53:48.627Z,1.83
2022-11-10T18:56:15.714Z,1.80
2022-11-10T18:58:42.913Z,1.93
2022-11-10T19:01:11.306Z,2.23
2022-11-10T19:03:38.728Z,2.87
2022-11-10T19:06:06.520Z,1.90
2022-11-10T19:08:33.511Z,1.83
2022-11-10T19:11:00.774Z,2.27
2022-11-10T19:13:30.117Z,1.80
2022-11-10T19:16:00.182Z,2.20
2022-11-10T19:18:29.659Z,2.37
2022-11-10T19:21:03.539Z,1.90
2022-11-10T19:23:30.848Z,2.33
2022-11-10T19:26:03.571Z,1.73
2022-11-10T19:28:30.904Z,1.73
2022-11-10T19:31:10.889Z,2.17
2022-11-10T19:33:42.739Z,1.97
2022-11-10T19:36:10.842Z,2.17
2022-11-10T19:38:38.250Z,2.40
2022-11-10T19:41:15.898Z,1.90
2022-11-10T19:43:47.310Z,2.13
2022-11-10T19:46:22.026Z,2.20
2022-11-10T19:48:49.311Z,2.30
2022-11-10T19:51:18.937Z,2.30
2022-11-10T19:53:49.205Z,2.30
2022-11-10T19:56:20.289Z,2.20
2022-11-10T19:58:48.789Z,1.80
2022-11-10T20:01:18.669Z,2.50
2022-11-10T20:03:46.722Z,2.50
2022-11-10T20:06:23.899Z,2.47
2022-11-10T20:08:51.243Z,2.57
2022-11-10T20:11:27.027Z,2.90
2022-11-10T20:14:00.514Z,2.47
2022-11-10T20:16:27.581Z,2.30
2022-11-10T20:18:54.931Z,2.43
2022-11-10T20:21:23.685Z,2.30
2022-11-10T20:23:57.354Z,2.60
2022-11-10T20:26:25.935Z,2.30
2022-11-10T20:28:53.207Z,2.40
2022-11-10T20:31:26.176Z,2.70
2022-11-10T20:33:56.282Z,2.67
2022-11-10T20:36:33.836Z,2.60
2022-11-10T20:39:03.838Z,2.27
2022-11-10T20:41:32.893Z,2.87
2022-11-10T20:43:59.932Z,3.23
2022-11-10T20:46:53.406Z,2.57
2022-11-10T20:49:19.171Z,2.40
2022-11-10T20:51:46.208Z,2.00
2022-11-10T20:54:15.012Z,2.80
2022-11-10T20:56:41.977Z,2.57
2022-11-10T20:59:09.397Z,2.30
2022-11-10T21:01:37.570Z,2.40
2022-11-10T21:04:06.080Z,2.57
2022-11-10T21:06:33.374Z,2.70
2022-11-10T21:09:00.530Z,2.67
2022-11-10T21:11:45.934Z,2.30
2022-11-10T21:14:13.420Z,2.67
2022-11-10T21:16:40.445Z,3.20
2022-11-10T21:19:07.444Z,2.53
2022-11-10T21:21:34.827Z,3.23
2022-11-10T21:24:07.685Z,3.37
2022-11-10T21:26:35.739Z,2.97
2022-11-10T21:29:06.315Z,2.80
2022-11-10T21:31:33.899Z,2.50
2022-11-10T21:34:00.978Z,2.60
2022-11-10T21:36:29.457Z,2.50
2022-11-10T21:38:58.634Z,2.80
2022-11-10T21:41:26.694Z,2.60
2022-11-10T21:43:53.880Z,2.60
2022-11-10T21:46:21.050Z,3.13
2022-11-10T21:48:50.159Z,2.50
2022-11-10T21:51:17.475Z,2.77
2022-11-10T21:53:44.455Z,2.33
2022-11-10T21:56:12.412Z,2.37
2022-11-10T21:58:40.315Z,2.30
2022-11-10T22:01:18.243Z,2.80
2022-11-10T22:03:45.834Z,2.43
2022-11-10T22:06:17.279Z,2.07
2022-11-10T22:08:47.082Z,2.43
2022-11-10T22:11:36.977Z,2.60
2022-11-10T22:14:30.990Z,2.87
2022-11-10T22:17:17.855Z,3.03
2022-11-10T22:19:45.405Z,2.63
2022-11-10T22:22:14.342Z,2.63
2022-11-10T22:24:41.680Z,2.43
2022-11-10T22:27:08.804Z,3.03
2022-11-10T22:29:36.229Z,2.63
2022-11-10T22:32:03.856Z,3.27
2022-11-10T22:34:30.827Z,2.73
2022-11-10T22:36:59.558Z,2.60
2022-11-10T22:39:49.475Z,2.17
2022-11-10T22:42:35.294Z,2.47
2022-11-10T22:45:02.351Z,2.07
2022-11-10T22:47:49.651Z,2.37
2022-11-10T22:50:16.697Z,2.47
2022-11-10T22:52:43.736Z,2.07
2022-11-10T22:55:10.833Z,2.30
2022-11-10T22:57:37.808Z,2.43
2022-11-10T23:00:06.394Z,2.10
2022-11-10T23:02:33.438Z,2.63
2022-11-10T23:05:00.473Z,2.13
2022-11-10T23:07:28.946Z,2.40
2022-11-10T23:09:55.925Z,2.37
2022-11-10T23:12:22.903Z,2.80
2022-11-10T23:14:49.878Z,2.70
2022-11-10T23:17:16.836Z,2.30
2022-11-10T23:19:43.824Z,2.17
2022-11-10T23:22:10.794Z,2.70
2022-11-10T23:24:37.783Z,2.13
2022-11-10T23:27:04.754Z,2.53
2022-11-10T23:29:31.742Z,2.23
2022-11-10T23:31:58.675Z,2.17
2022-11-10T23:34:25.632Z,2.00
2022-11-10T23:36:52.593Z,2.57
2022-11-10T23:39:19.557Z,2.10
2022-11-10T23:41:46.539Z,2.10
2022-11-10T23:44:13.560Z,2.97
2022-11-10T23:46:40.610Z,2.30
2022-11-10T23:49:07.564Z,2.23
2022-11-10T23:51:34.566Z,2.20
2022-11-10T23:54:01.515Z,2.20
2022-11-10T23:56:28.494Z,2.00
2022-11-10T23:58:55.467Z,2.20
